createdAt,value
2022-10-29T00:00:13.850Z,19.73
2022-10-29T00:03:03.383Z,19.69
2022-10-29T00:05:03.341Z,19.7
2022-10-29T00:08:03.384Z,19.67
2022-10-29T00:11:03.396Z,19.65
2022-10-29T00:13:03.415Z,19.59
2022-10-29T00:16:03.545Z,19.54
2022-10-29T00:18:03.332Z,19.59
2022-10-29T00:20:03.385Z,19.62
2022-10-29T00:22:03.355Z,19.6
2022-10-29T00:25:03.361Z,19.57
2022-10-29T00:27:03.442Z,19.52
2022-10-29T00:30:03.626Z,19.6
2022-10-29T00:33:03.376Z,19.65
2022-10-29T00:35:03.424Z,19.64
2022-10-29T00:38:09.289Z,19.62
2022-10-29T00:40:03.424Z,19.62
2022-10-29T00:43:03.484Z,19.62
2022-10-29T00:45:03.347Z,19.65
2022-10-29T00:47:03.364Z,19.66
2022-10-29T00:50:06.756Z,19.62
2022-10-29T00:52:03.355Z,19.57
2022-10-29T00:55:03.369Z,19.48
2022-10-29T00:58:03.367Z,19.44
2022-10-29T01:01:03.477Z,19.34
2022-10-29T01:04:03.349Z,19.27
2022-10-29T01:06:03.384Z,19.24
2022-10-29T01:09:13.663Z,19.14
2022-10-29T01:11:13.897Z,19.07
2022-10-29T01:14:03.346Z,19.04
2022-10-29T01:17:03.385Z,19.02
2022-10-29T01:20:03.335Z,19.01
2022-10-29T01:22:24.046Z,18.91
2022-10-29T01:24:23.920Z,18.9
2022-10-29T01:28:03.374Z,18.86
2022-10-29T01:30:03.359Z,18.9
2022-10-29T01:32:03.382Z,18.92
2022-10-29T01:34:13.801Z,18.92
2022-10-29T01:37:03.374Z,18.92
2022-10-29T01:40:03.500Z,18.92
2022-10-29T01:44:03.381Z,18.98
2022-10-29T01:46:03.401Z,19
2022-10-29T01:49:03.482Z,19.04
2022-10-29T01:52:03.535Z,18.95
2022-10-29T01:54:13.647Z,18.9
2022-10-29T01:57:03.805Z,18.85
2022-10-29T01:59:03.872Z,18.83
2022-10-29T02:02:03.590Z,18.91
2022-10-29T02:05:03.366Z,18.95
2022-10-29T02:07:03.482Z,18.87
2022-10-29T02:10:03.686Z,18.87
2022-10-29T02:13:03.476Z,18.91
2022-10-29T02:16:03.504Z,18.94
2022-10-29T02:19:03.461Z,18.85
2022-10-29T02:22:03.460Z,18.79
2022-10-29T02:25:03.429Z,18.81
2022-10-29T02:28:03.405Z,18.81
2022-10-29T02:30:03.477Z,18.85
2022-10-29T02:33:03.402Z,18.91
2022-10-29T02:36:03.442Z,18.91
2022-10-29T02:39:03.421Z,18.96
2022-10-29T02:42:03.387Z,18.98
2022-10-29T02:44:03.430Z,18.95
2022-10-29T02:48:03.399Z,18.93
2022-10-29T02:52:03.896Z,18.81
2022-10-29T02:54:13.675Z,18.77
2022-10-29T02:57:03.463Z,18.71
2022-10-29T03:00:03.370Z,18.75
2022-10-29T03:03:03.515Z,18.7
2022-10-29T03:06:03.411Z,18.71
2022-10-29T03:09:03.447Z,18.76
2022-10-29T03:11:03.428Z,18.74
2022-10-29T03:14:14.035Z,18.76
2022-10-29T03:16:13.681Z,18.7
2022-10-29T03:19:03.398Z,18.62
2022-10-29T03:21:03.487Z,18.6
2022-10-29T03:23:03.392Z,18.58
2022-10-29T03:25:03.481Z,18.51
2022-10-29T03:27:13.674Z,18.46
2022-10-29T03:30:03.699Z,18.37
2022-10-29T03:33:03.389Z,18.24
2022-10-29T03:35:03.590Z,18.21
2022-10-29T03:38:03.392Z,18.16
2022-10-29T03:40:14.304Z,18.12
2022-10-29T03:43:39.021Z,18.12
2022-10-29T03:46:23.950Z,18.14
2022-10-29T03:48:23.936Z,18.17
2022-10-29T03:52:03.589Z,18.07
2022-10-29T03:56:03.466Z,17.92
2022-10-29T03:58:23.938Z,17.9
2022-10-29T04:00:24.003Z,17.92
2022-10-29T04:04:04.387Z,17.92
2022-10-29T04:08:03.372Z,18.07
2022-10-29T04:10:24.060Z,18.21
2022-10-29T04:13:03.384Z,18.41
2022-10-29T04:16:03.373Z,18.48
2022-10-29T04:18:03.417Z,18.52
2022-10-29T04:20:04.860Z,18.57
2022-10-29T04:28:42.314Z,18.6
2022-10-29T04:30:03.432Z,18.57
2022-10-29T04:33:03.389Z,18.6
2022-10-29T04:35:13.658Z,18.61
2022-10-29T04:38:03.532Z,18.62
2022-10-29T04:40:03.483Z,18.62
2022-10-29T04:42:03.397Z,18.65
2022-10-29T04:44:03.401Z,18.64
2022-10-29T04:46:13.688Z,18.62
2022-10-29T04:49:24.072Z,18.52
2022-10-29T04:52:13.909Z,18.57
2022-10-29T04:56:03.399Z,18.49
2022-10-29T04:58:03.538Z,18.48
2022-10-29T05:01:13.922Z,18.49
2022-10-29T05:03:13.790Z,18.45
2022-10-29T05:06:03.404Z,18.46
2022-10-29T05:09:03.405Z,18.53
2022-10-29T05:12:03.421Z,18.57
2022-10-29T05:14:13.861Z,18.6
2022-10-29T05:16:13.687Z,18.61
2022-10-29T05:20:03.406Z,18.61
2022-10-29T05:24:03.421Z,18.62
2022-10-29T05:26:13.683Z,18.62
2022-10-29T05:29:03.435Z,18.64
2022-10-29T05:34:03.436Z,18.68
2022-10-29T05:36:03.632Z,18.68
2022-10-29T05:38:13.945Z,18.7
2022-10-29T05:41:03.422Z,18.69
2022-10-29T05:43:25.890Z,18.69
2022-10-29T05:46:13.712Z,18.68
2022-10-29T05:49:03.422Z,18.69
2022-10-29T05:52:03.459Z,18.66
2022-10-29T05:55:03.433Z,18.62
2022-10-29T05:57:13.660Z,18.62
2022-10-29T06:00:03.463Z,18.65
2022-10-29T06:02:25.804Z,18.62
2022-10-29T06:05:13.684Z,18.6
2022-10-29T06:08:03.456Z,18.61
2022-10-29T06:12:03.436Z,18.64
2022-10-29T06:14:23.991Z,18.64
2022-10-29T06:16:23.984Z,18.62
2022-10-29T06:20:03.467Z,18.62
2022-10-29T06:24:03.546Z,18.61
2022-10-29T06:26:13.769Z,18.59
2022-10-29T06:28:13.693Z,18.62
2022-10-29T06:31:03.957Z,18.6
2022-10-29T06:34:03.487Z,18.57
2022-10-29T06:37:03.788Z,18.61
2022-10-29T06:39:03.500Z,18.61
2022-10-29T06:42:03.459Z,18.61
2022-10-29T06:45:03.442Z,18.61
2022-10-29T06:47:13.674Z,18.61
2022-10-29T06:50:05.480Z,18.6
2022-10-29T06:52:03.451Z,18.57
2022-10-29T06:54:03.453Z,18.58
2022-10-29T06:56:24.044Z,18.58
2022-10-29T06:59:03.404Z,18.6
2022-10-29T07:02:03.488Z,18.62
2022-10-29T07:06:03.512Z,18.62
2022-10-29T07:08:13.697Z,18.6
2022-10-29T07:11:03.459Z,18.59
2022-10-29T07:14:03.856Z,18.57
2022-10-29T07:16:03.511Z,18.58
2022-10-29T07:19:14.084Z,18.59
2022-10-29T07:23:03.413Z,18.54
2022-10-29T07:25:03.449Z,18.52
2022-10-29T07:28:03.486Z,18.5
2022-10-29T07:30:13.904Z,18.51
2022-10-29T07:33:03.459Z,18.5
2022-10-29T07:35:40.922Z,18.51
2022-10-29T07:38:13.707Z,18.54
2022-10-29T07:41:03.524Z,18.54
2022-10-29T07:43:03.497Z,18.56
2022-10-29T07:46:13.714Z,18.61
2022-10-29T07:48:13.728Z,18.6
2022-10-29T07:51:03.405Z,18.66
2022-10-29T07:55:03.442Z,18.74
2022-10-29T07:57:13.982Z,18.77
2022-10-29T08:00:03.454Z,18.69
2022-10-29T08:02:26.070Z,18.7
2022-10-29T08:05:13.735Z,18.73
2022-10-29T08:08:03.478Z,18.77
2022-10-29T08:11:03.469Z,18.77
2022-10-29T08:13:03.612Z,18.75
2022-10-29T08:16:03.467Z,18.75
2022-10-29T08:18:04.891Z,18.74
2022-10-29T08:21:03.464Z,18.74
2022-10-29T08:23:03.457Z,18.73
2022-10-29T08:25:03.481Z,18.74
2022-10-29T08:28:03.470Z,18.76
2022-10-29T08:30:03.436Z,18.78
2022-10-29T08:32:03.463Z,18.79
2022-10-29T08:34:11.033Z,18.82
2022-10-29T08:37:03.487Z,18.83
2022-10-29T08:39:13.729Z,18.83
2022-10-29T08:41:13.841Z,18.86
2022-10-29T08:47:05.367Z,18.89
2022-10-29T08:50:18.868Z,18.9
2022-10-29T08:51:24.001Z,18.91
2022-10-29T08:55:03.435Z,18.95
2022-10-29T08:57:03.447Z,18.96
2022-10-29T08:59:03.439Z,18.98
2022-10-29T09:01:13.787Z,19
2022-10-29T09:04:03.649Z,19
2022-10-29T09:06:03.456Z,19.01
2022-10-29T09:08:03.439Z,19.02
2022-10-29T09:10:14.292Z,19.01
2022-10-29T09:13:03.447Z,19.02
2022-10-29T09:16:03.444Z,19.06
2022-10-29T09:19:03.432Z,19.08
2022-10-29T09:21:03.441Z,19.11
2022-10-29T09:23:03.437Z,19.11
2022-10-29T09:26:03.999Z,19.14
2022-10-29T09:29:03.456Z,19.16
2022-10-29T09:33:04.227Z,19.2
2022-10-29T09:36:03.518Z,19.21
2022-10-29T09:39:09.112Z,19.25
2022-10-29T09:43:03.499Z,19.29
2022-10-29T09:45:13.935Z,19.32
2022-10-29T09:48:03.478Z,19.37
2022-10-29T09:50:05.223Z,19.37
2022-10-29T09:53:03.486Z,19.43
2022-10-29T09:56:03.478Z,19.46
2022-10-29T09:58:03.483Z,19.5
2022-10-29T10:01:03.490Z,19.53
2022-10-29T10:03:03.707Z,19.57
2022-10-29T10:06:03.470Z,19.61
2022-10-29T10:08:03.557Z,19.65
2022-10-29T10:11:03.448Z,19.69
2022-10-29T10:13:03.995Z,19.71
2022-10-29T10:16:03.490Z,19.76
2022-10-29T10:18:03.536Z,19.79
2022-10-29T10:21:03.476Z,19.87
2022-10-29T10:24:03.506Z,19.95
2022-10-29T10:26:04.269Z,19.99
2022-10-29T10:28:03.480Z,20.04
2022-10-29T10:31:03.508Z,20.14
2022-10-29T10:34:03.491Z,20.2
2022-10-29T10:36:03.732Z,20.27
2022-10-29T10:38:03.524Z,20.33
2022-10-29T10:40:03.533Z,20.39
2022-10-29T10:43:05.404Z,20.46
2022-10-29T10:47:03.496Z,20.57
2022-10-29T10:49:03.505Z,20.61
2022-10-29T10:51:03.747Z,20.66
2022-10-29T10:55:03.478Z,20.75
2022-10-29T10:57:13.772Z,20.78
2022-10-29T11:00:03.477Z,20.85
2022-10-29T11:03:03.487Z,20.94
2022-10-29T11:05:05.193Z,21.01
2022-10-29T11:07:03.782Z,21.06
2022-10-29T11:09:13.785Z,21.13
2022-10-29T11:12:03.491Z,21.19
2022-10-29T11:14:25.723Z,21.25
2022-10-29T11:17:13.929Z,21.33
2022-10-29T11:19:13.793Z,21.36
2022-10-29T11:22:03.485Z,21.46
2022-10-29T11:25:03.468Z,21.54
2022-10-29T11:27:03.490Z,21.6
2022-10-29T11:29:03.740Z,21.65
2022-10-29T11:31:03.509Z,21.7
2022-10-29T11:34:03.552Z,21.8
2022-10-29T11:37:03.506Z,21.9
2022-10-29T11:40:03.870Z,21.98
2022-10-29T11:42:03.499Z,22.02
2022-10-29T11:45:03.503Z,22.05
2022-10-29T11:48:03.537Z,22.07
2022-10-29T11:51:03.585Z,22.09
2022-10-29T11:54:03.527Z,22.15
2022-10-29T11:56:03.702Z,22.2
2022-10-29T11:58:03.518Z,22.24
2022-10-29T12:00:03.681Z,22.29
2022-10-29T12:03:03.514Z,22.35
2022-10-29T12:06:03.500Z,22.44
2022-10-29T12:09:03.510Z,22.53
2022-10-29T12:11:03.541Z,22.59
2022-10-29T12:13:03.498Z,22.64
2022-10-29T12:16:03.513Z,22.74
2022-10-29T12:19:03.638Z,22.83
2022-10-29T12:22:03.611Z,22.89
2022-10-29T12:24:03.657Z,22.9
2022-10-29T12:27:03.502Z,22.92
2022-10-29T12:30:03.472Z,22.9
2022-10-29T12:32:03.588Z,22.87
2022-10-29T12:35:03.728Z,22.88
2022-10-29T12:38:03.473Z,22.95
2022-10-29T12:40:03.660Z,23.03
2022-10-29T12:43:03.621Z,23.1
2022-10-29T12:46:19.420Z,23.13
2022-10-29T12:48:03.539Z,23.15
2022-10-29T12:51:03.525Z,23.18
2022-10-29T12:53:03.974Z,23.15
2022-10-29T12:56:04.774Z,23.12
2022-10-29T12:59:03.528Z,23.06
2022-10-29T13:02:11.453Z,23.01
2022-10-29T13:04:03.760Z,22.98
2022-10-29T13:07:13.401Z,22.92
2022-10-29T13:09:03.532Z,22.87
2022-10-29T13:12:03.529Z,22.82
2022-10-29T13:14:13.790Z,22.78
2022-10-29T13:16:13.815Z,22.74
2022-10-29T13:19:03.537Z,22.72
2022-10-29T13:21:03.527Z,22.68
2022-10-29T13:24:04.149Z,22.64
2022-10-29T13:26:03.552Z,22.59
2022-10-29T13:28:03.527Z,22.58
2022-10-29T13:31:03.563Z,22.55
2022-10-29T13:34:03.578Z,22.53
2022-10-29T13:37:03.552Z,22.5
2022-10-29T13:40:03.515Z,22.49
2022-10-29T13:42:03.503Z,22.49
2022-10-29T13:44:03.541Z,22.48
2022-10-29T13:46:03.516Z,22.5
2022-10-29T13:49:03.544Z,22.51
2022-10-29T13:52:03.521Z,22.52
2022-10-29T13:55:03.516Z,22.53
2022-10-29T13:58:03.499Z,22.55
2022-10-29T14:00:03.555Z,22.55
2022-10-29T14:03:03.551Z,22.56
2022-10-29T14:05:03.553Z,22.57
2022-10-29T14:08:03.555Z,22.57
2022-10-29T14:11:03.566Z,22.56
2022-10-29T14:14:03.548Z,22.55
2022-10-29T14:17:03.552Z,22.55
2022-10-29T14:19:03.992Z,22.55
2022-10-29T14:22:03.570Z,22.53
2022-10-29T14:25:03.554Z,22.49
2022-10-29T14:28:03.545Z,22.48
2022-10-29T14:30:03.507Z,22.46
2022-10-29T14:32:03.516Z,22.44
2022-10-29T14:34:03.539Z,22.42
2022-10-29T14:37:03.529Z,22.4
2022-10-29T14:39:03.552Z,22.38
2022-10-29T14:42:03.532Z,22.37
2022-10-29T14:44:03.548Z,22.35
2022-10-29T14:46:03.560Z,22.33
2022-10-29T14:48:03.589Z,22.32
2022-10-29T14:51:03.572Z,22.31
2022-10-29T14:53:03.572Z,22.29
2022-10-29T14:55:13.802Z,22.28
2022-10-29T14:58:03.585Z,22.26
2022-10-29T15:00:03.653Z,22.25
2022-10-29T15:03:03.894Z,22.22
2022-10-29T15:05:13.812Z,22.22
2022-10-29T15:08:34.407Z,22.2
2022-10-29T15:11:13.822Z,22.18
2022-10-29T15:15:03.532Z,22.15
2022-10-29T15:19:03.531Z,22.14
2022-10-29T15:21:13.812Z,22.13
2022-10-29T15:24:03.595Z,22.12
2022-10-29T15:26:03.532Z,22.11
2022-10-29T15:29:03.562Z,22.1
2022-10-29T15:31:13.828Z,22.08
2022-10-29T15:34:03.554Z,22.07
2022-10-29T15:36:03.540Z,22.06
2022-10-29T15:39:03.536Z,22.04
2022-10-29T15:42:03.519Z,22.03
2022-10-29T15:44:03.549Z,22.05
2022-10-29T15:46:03.560Z,22.04
2022-10-29T15:48:03.552Z,22.03
2022-10-29T15:51:03.555Z,22.04
2022-10-29T15:53:03.565Z,22.05
2022-10-29T15:56:03.566Z,22.05
2022-10-29T15:59:03.538Z,22.04
2022-10-29T16:01:03.632Z,22.03
2022-10-29T16:04:03.564Z,22.01
2022-10-29T16:06:04.558Z,21.99
2022-10-29T16:08:13.827Z,21.98
2022-10-29T16:11:03.575Z,21.96
2022-10-29T16:15:03.568Z,21.94
2022-10-29T16:17:24.149Z,21.92
2022-10-29T16:20:03.611Z,21.89
2022-10-29T16:23:03.596Z,21.86
2022-10-29T16:26:03.571Z,21.8
2022-10-29T16:28:03.600Z,21.79
2022-10-29T16:31:03.605Z,21.77
2022-10-29T16:33:03.629Z,21.76
2022-10-29T16:36:03.572Z,21.74
2022-10-29T16:38:03.653Z,21.73
2022-10-29T16:41:03.602Z,21.69
2022-10-29T16:44:03.578Z,21.64
2022-10-29T16:46:05.257Z,21.64
2022-10-29T16:49:03.576Z,21.59
2022-10-29T16:51:03.602Z,21.57
2022-10-29T16:53:03.651Z,21.53
2022-10-29T16:56:03.576Z,21.5
2022-10-29T16:59:03.591Z,21.46
2022-10-29T17:02:03.585Z,21.42
2022-10-29T17:05:04.272Z,21.4
2022-10-29T17:08:03.596Z,21.38
2022-10-29T17:11:03.580Z,21.38
2022-10-29T17:13:03.562Z,21.37
2022-10-29T17:15:03.603Z,21.36
2022-10-29T17:17:13.857Z,21.33
2022-10-29T17:20:03.582Z,21.29
2022-10-29T17:23:03.568Z,21.31
2022-10-29T17:27:03.586Z,21.25
2022-10-29T17:29:13.851Z,21.21
2022-10-29T17:35:03.618Z,21.2
2022-10-29T17:38:03.609Z,21.18
2022-10-29T17:40:13.889Z,21.17
2022-10-29T17:43:03.586Z,21.15
2022-10-29T17:45:03.637Z,21.13
2022-10-29T17:48:03.623Z,21.13
2022-10-29T17:51:03.639Z,21.09
2022-10-29T17:54:03.615Z,21.07
2022-10-29T17:57:03.581Z,21.05
2022-10-29T17:59:03.558Z,21.01
2022-10-29T18:02:03.647Z,20.95
2022-10-29T18:04:03.591Z,20.93
2022-10-29T18:07:03.596Z,20.93
2022-10-29T18:09:03.571Z,20.91
2022-10-29T18:11:03.579Z,20.89
2022-10-29T18:15:03.611Z,20.82
2022-10-29T18:17:13.862Z,20.83
2022-10-29T18:20:03.615Z,20.84
2022-10-29T18:22:03.602Z,20.84
2022-10-29T18:24:03.654Z,20.83
2022-10-29T18:27:03.583Z,20.78
2022-10-29T18:29:13.852Z,20.75
2022-10-29T18:32:03.676Z,20.79
2022-10-29T18:35:03.588Z,20.81
2022-10-29T18:37:03.672Z,20.78
2022-10-29T18:40:03.605Z,20.74
2022-10-29T18:42:13.918Z,20.7
2022-10-29T18:45:03.610Z,20.69
2022-10-29T18:48:03.662Z,20.67
2022-10-29T18:51:03.584Z,20.7
2022-10-29T18:53:03.621Z,20.65
2022-10-29T18:56:03.600Z,20.62
2022-10-29T18:58:03.619Z,20.57
2022-10-29T19:01:03.699Z,20.53
2022-10-29T19:04:03.622Z,20.57
2022-10-29T19:06:03.633Z,20.55
2022-10-29T19:09:03.619Z,20.5
2022-10-29T19:11:03.626Z,20.46
2022-10-29T19:14:03.597Z,20.45
2022-10-29T19:16:03.598Z,20.45
2022-10-29T19:22:03.622Z,20.35
2022-10-29T19:25:03.639Z,20.29
2022-10-29T19:28:03.594Z,20.31
2022-10-29T19:31:03.613Z,20.32
2022-10-29T19:33:07.562Z,20.29
2022-10-29T19:35:03.604Z,20.29
2022-10-29T19:37:03.630Z,20.26
2022-10-29T19:39:03.621Z,20.26
2022-10-29T19:42:03.618Z,20.27
2022-10-29T19:44:03.614Z,20.28
2022-10-29T19:47:03.618Z,20.29
2022-10-29T19:49:03.630Z,20.32
2022-10-29T19:51:03.596Z,20.34
2022-10-29T19:54:03.622Z,20.31
2022-10-29T19:57:03.629Z,20.35
2022-10-29T20:00:03.589Z,20.29
2022-10-29T20:02:03.729Z,20.25
2022-10-29T20:05:03.643Z,20.26
2022-10-29T20:08:03.635Z,20.23
2022-10-29T20:11:03.648Z,20.23
2022-10-29T20:14:03.618Z,20.2
2022-10-29T20:17:03.601Z,20.28
2022-10-29T20:19:10.800Z,20.31
2022-10-29T20:24:03.636Z,20.32
2022-10-29T20:26:03.731Z,20.32
2022-10-29T20:29:03.669Z,20.25
2022-10-29T20:31:03.660Z,20.17
2022-10-29T20:34:03.666Z,20.16
2022-10-29T20:36:03.692Z,20.18
2022-10-29T20:38:13.953Z,20.2
2022-10-29T20:41:03.745Z,20.17
2022-10-29T20:44:03.607Z,20.17
2022-10-29T20:47:03.637Z,20.19
2022-10-29T20:50:03.629Z,20.18
2022-10-29T20:52:03.645Z,20.17
2022-10-29T20:55:03.634Z,20.23
2022-10-29T20:57:03.682Z,20.26
2022-10-29T20:59:03.637Z,20.26
2022-10-29T21:01:03.683Z,20.28
2022-10-29T21:04:04.634Z,20.26
2022-10-29T21:06:03.642Z,20.25
2022-10-29T21:08:03.706Z,20.21
2022-10-29T21:10:03.730Z,20.2
2022-10-29T21:13:03.659Z,20.25
2022-10-29T21:15:03.648Z,20.26
2022-10-29T21:18:03.675Z,20.2
2022-10-29T21:20:03.653Z,20.2
2022-10-29T21:22:03.626Z,20.2
2022-10-29T21:25:03.662Z,20.19
2022-10-29T21:27:03.627Z,20.17
2022-10-29T21:29:03.648Z,20.16
2022-10-29T21:32:03.613Z,20.17
2022-10-29T21:34:03.696Z,20.15
2022-10-29T21:37:03.622Z,20.04
2022-10-29T21:40:05.186Z,19.94
2022-10-29T21:43:03.616Z,19.95
2022-10-29T21:45:03.644Z,19.95
2022-10-29T21:48:03.609Z,19.98
2022-10-29T21:50:03.697Z,19.99
2022-10-29T21:54:03.676Z,20.04
2022-10-29T21:56:13.937Z,20.08
2022-10-29T21:58:24.237Z,20.11
2022-10-29T22:02:03.761Z,20.08
2022-10-29T22:04:03.630Z,20.08
2022-10-29T22:06:03.683Z,20.12
2022-10-29T22:08:13.927Z,20.16
2022-10-29T22:11:03.662Z,20.19
2022-10-29T22:13:25.919Z,20.2
2022-10-29T22:16:13.920Z,20.21
2022-10-29T22:19:03.666Z,20.2
2022-10-29T22:22:03.684Z,20.19
2022-10-29T22:25:03.664Z,20.19
2022-10-29T22:28:03.646Z,20.17
2022-10-29T22:31:04.722Z,20.12
2022-10-29T22:34:03.668Z,20.08
2022-10-29T22:36:03.669Z,20.03
2022-10-29T22:39:03.650Z,20
2022-10-29T22:41:03.693Z,20.03
2022-10-29T22:44:03.714Z,20.07
2022-10-29T22:47:03.667Z,20.1
2022-10-29T22:51:03.768Z,20.12
2022-10-29T22:54:03.690Z,20.12
2022-10-29T22:56:03.679Z,20.12
2022-10-29T22:58:03.722Z,20.14
2022-10-29T23:00:13.972Z,20.12
2022-10-29T23:03:03.678Z,20.11
2022-10-29T23:06:03.681Z,20.08
2022-10-29T23:09:03.663Z,20.09
2022-10-29T23:11:03.703Z,20.06
2022-10-29T23:14:03.672Z,20.06
2022-10-29T23:16:03.643Z,20.07
2022-10-29T23:18:03.680Z,20.07
2022-10-29T23:20:03.678Z,20.06
2022-10-29T23:23:03.646Z,20.03
2022-10-29T23:25:03.688Z,20.03
2022-10-29T23:28:03.706Z,20.02
2022-10-29T23:31:03.656Z,19.96
2022-10-29T23:33:03.658Z,19.95
2022-10-29T23:35:03.695Z,19.98
2022-10-29T23:38:03.679Z,19.98
2022-10-29T23:40:03.701Z,19.99
2022-10-29T23:43:03.667Z,20
2022-10-29T23:46:04.253Z,20
2022-10-29T23:49:03.662Z,19.96
2022-10-29T23:52:03.681Z,19.95
2022-10-29T23:55:03.677Z,19.9
2022-10-29T23:57:03.682Z,19.89
2022-10-29T23:59:03.718Z,19.89
